sensor_id;sensor_type;location;lat;lon;timestamp;P1;durP1;ratioP1;P2;durP2;ratioP2
42066;SDS011;27734;47.028;28.820;2022-08-25T00:00:27;14.03;;;4.20;;
42066;SDS011;27734;47.028;28.820;2022-08-25T00:03:09;16.27;;;3.90;;
42066;SDS011;27734;47.028;28.820;2022-08-25T00:05:40;10.90;;;4.27;;
42066;SDS011;27734;47.028;28.820;2022-08-25T00:08:12;10.87;;;3.73;;
42066;SDS011;27734;47.028;28.820;2022-08-25T00:10:43;8.80;;;4.20;;
42066;SDS011;27734;47.028;28.820;2022-08-25T00:13:14;11.05;;;4.00;;
42066;SDS011;27734;47.028;28.820;2022-08-25T00:15:45;13.07;;;4.03;;
42066;SDS011;27734;47.028;28.820;2022-08-25T00:18:16;12.27;;;3.97;;
42066;SDS011;27734;47.028;28.820;2022-08-25T00:20:47;10.83;;;4.27;;
42066;SDS011;27734;47.028;28.820;2022-08-25T00:23:18;11.80;;;4.10;;
42066;SDS011;27734;47.028;28.820;2022-08-25T00:25:50;10.73;;;4.10;;
42066;SDS011;27734;47.028;28.820;2022-08-25T00:28:22;12.23;;;4.17;;
42066;SDS011;27734;47.028;28.820;2022-08-25T00:30:54;10.17;;;4.20;;
42066;SDS011;27734;47.028;28.820;2022-08-25T00:33:26;13.30;;;4.20;;
42066;SDS011;27734;47.028;28.820;2022-08-25T00:35:58;6.93;;;4.20;;
42066;SDS011;27734;47.028;28.820;2022-08-25T00:38:29;9.93;;;4.03;;
42066;SDS011;27734;47.028;28.820;2022-08-25T00:41:01;12.50;;;4.63;;
42066;SDS011;27734;47.028;28.820;2022-08-25T00:43:41;9.53;;;4.13;;
42066;SDS011;27734;47.028;28.820;2022-08-25T00:46:16;14.23;;;4.30;;
42066;SDS011;27734;47.028;28.820;2022-08-25T00:48:49;10.13;;;4.07;;
42066;SDS011;27734;47.028;28.820;2022-08-25T00:51:26;10.13;;;4.17;;
42066;SDS011;27734;47.028;28.820;2022-08-25T00:54:04;10.77;;;4.00;;
42066;SDS011;27734;47.028;28.820;2022-08-25T00:56:39;12.60;;;4.30;;
42066;SDS011;27734;47.028;28.820;2022-08-25T00:59:11;9.33;;;4.30;;
42066;SDS011;27734;47.028;28.820;2022-08-25T01:01:43;13.97;;;4.30;;
42066;SDS011;27734;47.028;28.820;2022-08-25T01:04:14;12.80;;;4.47;;
42066;SDS011;27734;47.028;28.820;2022-08-25T01:06:45;14.77;;;4.80;;
42066;SDS011;27734;47.028;28.820;2022-08-25T01:09:18;11.67;;;4.53;;
42066;SDS011;27734;47.028;28.820;2022-08-25T01:11:49;13.00;;;4.13;;
42066;SDS011;27734;47.028;28.820;2022-08-25T01:14:21;12.80;;;3.87;;
42066;SDS011;27734;47.028;28.820;2022-08-25T01:16:54;10.05;;;4.03;;
42066;SDS011;27734;47.028;28.820;2022-08-25T01:19:26;14.13;;;4.50;;
42066;SDS011;27734;47.028;28.820;2022-08-25T01:22:00;12.30;;;4.10;;
42066;SDS011;27734;47.028;28.820;2022-08-25T01:24:34;11.47;;;4.00;;
42066;SDS011;27734;47.028;28.820;2022-08-25T01:27:09;10.73;;;3.93;;
42066;SDS011;27734;47.028;28.820;2022-08-25T01:29:40;16.07;;;4.80;;
42066;SDS011;27734;47.028;28.820;2022-08-25T01:32:12;14.57;;;4.63;;
42066;SDS011;27734;47.028;28.820;2022-08-25T01:34:44;11.50;;;4.60;;
42066;SDS011;27734;47.028;28.820;2022-08-25T01:37:15;11.80;;;4.37;;
42066;SDS011;27734;47.028;28.820;2022-08-25T01:39:47;14.77;;;4.50;;
42066;SDS011;27734;47.028;28.820;2022-08-25T01:42:28;12.73;;;4.20;;
42066;SDS011;27734;47.028;28.820;2022-08-25T01:45:10;14.13;;;4.23;;
42066;SDS011;27734;47.028;28.820;2022-08-25T01:47:41;9.15;;;4.15;;
42066;SDS011;27734;47.028;28.820;2022-08-25T01:50:12;9.73;;;4.23;;
42066;SDS011;27734;47.028;28.820;2022-08-25T01:52:50;9.37;;;4.23;;
42066;SDS011;27734;47.028;28.820;2022-08-25T01:55:23;9.93;;;4.10;;
42066;SDS011;27734;47.028;28.820;2022-08-25T01:57:55;11.73;;;4.53;;
42066;SDS011;27734;47.028;28.820;2022-08-25T02:00:26;9.47;;;4.20;;
42066;SDS011;27734;47.028;28.820;2022-08-25T02:02:57;8.30;;;4.23;;
42066;SDS011;27734;47.028;28.820;2022-08-25T02:05:29;14.07;;;4.17;;
42066;SDS011;27734;47.028;28.820;2022-08-25T02:08:00;13.73;;;4.23;;
42066;SDS011;27734;47.028;28.820;2022-08-25T02:10:32;13.30;;;4.00;;
42066;SDS011;27734;47.028;28.820;2022-08-25T02:13:03;17.27;;;4.33;;
42066;SDS011;27734;47.028;28.820;2022-08-25T02:15:37;14.07;;;4.13;;
42066;SDS011;27734;47.028;28.820;2022-08-25T02:18:11;14.07;;;4.37;;
42066;SDS011;27734;47.028;28.820;2022-08-25T02:20:42;32.13;;;6.33;;
42066;SDS011;27734;47.028;28.820;2022-08-25T02:23:14;24.17;;;5.47;;
42066;SDS011;27734;47.028;28.820;2022-08-25T02:25:46;14.40;;;4.30;;
42066;SDS011;27734;47.028;28.820;2022-08-25T02:28:17;12.97;;;4.50;;
42066;SDS011;27734;47.028;28.820;2022-08-25T02:30:48;13.57;;;4.03;;
42066;SDS011;27734;47.028;28.820;2022-08-25T02:33:20;15.70;;;4.80;;
42066;SDS011;27734;47.028;28.820;2022-08-25T02:35:52;17.95;;;5.03;;
42066;SDS011;27734;47.028;28.820;2022-08-25T02:38:37;12.43;;;4.60;;
42066;SDS011;27734;47.028;28.820;2022-08-25T02:41:39;11.43;;;4.20;;
42066;SDS011;27734;47.028;28.820;2022-08-25T02:44:13;11.70;;;4.47;;
42066;SDS011;27734;47.028;28.820;2022-08-25T02:47:16;8.30;;;4.20;;
42066;SDS011;27734;47.028;28.820;2022-08-25T02:49:48;10.63;;;4.10;;
42066;SDS011;27734;47.028;28.820;2022-08-25T02:52:22;14.20;;;4.37;;
42066;SDS011;27734;47.028;28.820;2022-08-25T02:54:53;9.23;;;4.20;;
42066;SDS011;27734;47.028;28.820;2022-08-25T02:57:24;12.53;;;4.23;;
42066;SDS011;27734;47.028;28.820;2022-08-25T02:59:56;13.80;;;4.55;;
42066;SDS011;27734;47.028;28.820;2022-08-25T03:02:27;15.07;;;4.50;;
42066;SDS011;27734;47.028;28.820;2022-08-25T03:04:58;14.03;;;4.00;;
42066;SDS011;27734;47.028;28.820;2022-08-25T03:07:30;13.37;;;4.27;;
42066;SDS011;27734;47.028;28.820;2022-08-25T03:10:04;13.07;;;4.47;;
42066;SDS011;27734;47.028;28.820;2022-08-25T03:12:37;14.67;;;4.60;;
42066;SDS011;27734;47.028;28.820;2022-08-25T03:15:10;11.30;;;4.10;;
42066;SDS011;27734;47.028;28.820;2022-08-25T03:17:43;14.23;;;4.77;;
42066;SDS011;27734;47.028;28.820;2022-08-25T03:20:16;13.03;;;5.10;;
42066;SDS011;27734;47.028;28.820;2022-08-25T03:22:49;8.90;;;4.20;;
42066;SDS011;27734;47.028;28.820;2022-08-25T03:25:20;15.97;;;4.50;;
42066;SDS011;27734;47.028;28.820;2022-08-25T03:28:09;12.93;;;4.20;;
42066;SDS011;27734;47.028;28.820;2022-08-25T03:30:40;16.20;;;4.30;;
42066;SDS011;27734;47.028;28.820;2022-08-25T03:33:12;14.80;;;4.30;;
42066;SDS011;27734;47.028;28.820;2022-08-25T03:35:43;10.60;;;4.80;;
42066;SDS011;27734;47.028;28.820;2022-08-25T03:38:14;8.63;;;4.17;;
42066;SDS011;27734;47.028;28.820;2022-08-25T03:40:45;12.77;;;4.70;;
42066;SDS011;27734;47.028;28.820;2022-08-25T03:43:17;12.27;;;4.13;;
42066;SDS011;27734;47.028;28.820;2022-08-25T03:45:49;16.37;;;4.67;;
42066;SDS011;27734;47.028;28.820;2022-08-25T03:48:20;12.33;;;4.30;;
42066;SDS011;27734;47.028;28.820;2022-08-25T03:50:54;17.43;;;4.83;;
42066;SDS011;27734;47.028;28.820;2022-08-25T03:53:25;12.17;;;4.23;;
42066;SDS011;27734;47.028;28.820;2022-08-25T03:55:56;12.97;;;4.23;;
42066;SDS011;27734;47.028;28.820;2022-08-25T03:58:28;13.83;;;5.07;;
42066;SDS011;27734;47.028;28.820;2022-08-25T04:00:59;13.77;;;5.00;;
42066;SDS011;27734;47.028;28.820;2022-08-25T04:03:30;15.73;;;4.73;;
42066;SDS011;27734;47.028;28.820;2022-08-25T04:06:02;19.40;;;4.77;;
42066;SDS011;27734;47.028;28.820;2022-08-25T04:08:35;21.10;;;5.57;;
42066;SDS011;27734;47.028;28.820;2022-08-25T04:11:08;15.47;;;4.60;;
42066;SDS011;27734;47.028;28.820;2022-08-25T04:13:41;18.70;;;5.37;;
42066;SDS011;27734;47.028;28.820;2022-08-25T04:16:14;15.07;;;4.77;;
42066;SDS011;27734;47.028;28.820;2022-08-25T04:18:48;19.83;;;4.67;;
42066;SDS011;27734;47.028;28.820;2022-08-25T04:21:21;17.70;;;5.03;;
42066;SDS011;27734;47.028;28.820;2022-08-25T04:23:53;13.67;;;4.70;;
42066;SDS011;27734;47.028;28.820;2022-08-25T04:26:26;13.70;;;5.10;;
42066;SDS011;27734;47.028;28.820;2022-08-25T04:29:00;14.20;;;5.60;;
42066;SDS011;27734;47.028;28.820;2022-08-25T04:31:33;19.30;;;5.17;;
42066;SDS011;27734;47.028;28.820;2022-08-25T04:34:05;15.23;;;5.40;;
42066;SDS011;27734;47.028;28.820;2022-08-25T04:36:37;15.43;;;4.90;;
42066;SDS011;27734;47.028;28.820;2022-08-25T04:39:08;14.43;;;4.97;;
42066;SDS011;27734;47.028;28.820;2022-08-25T04:41:40;19.40;;;4.90;;
42066;SDS011;27734;47.028;28.820;2022-08-25T04:44:11;13.50;;;4.80;;
42066;SDS011;27734;47.028;28.820;2022-08-25T04:46:43;16.90;;;4.57;;
42066;SDS011;27734;47.028;28.820;2022-08-25T04:49:14;12.93;;;4.37;;
42066;SDS011;27734;47.028;28.820;2022-08-25T04:51:46;14.83;;;4.47;;
42066;SDS011;27734;47.028;28.820;2022-08-25T04:54:17;14.33;;;4.50;;
42066;SDS011;27734;47.028;28.820;2022-08-25T04:56:49;13.40;;;4.40;;
42066;SDS011;27734;47.028;28.820;2022-08-25T04:59:24;12.93;;;3.97;;
42066;SDS011;27734;47.028;28.820;2022-08-25T05:01:55;13.57;;;4.33;;
42066;SDS011;27734;47.028;28.820;2022-08-25T05:04:29;19.13;;;4.37;;
42066;SDS011;27734;47.028;28.820;2022-08-25T05:07:02;14.07;;;4.40;;
42066;SDS011;27734;47.028;28.820;2022-08-25T05:09:33;15.20;;;4.27;;
42066;SDS011;27734;47.028;28.820;2022-08-25T05:12:06;14.97;;;4.30;;
42066;SDS011;27734;47.028;28.820;2022-08-25T05:14:37;13.93;;;4.30;;
42066;SDS011;27734;47.028;28.820;2022-08-25T05:17:08;14.77;;;4.27;;
42066;SDS011;27734;47.028;28.820;2022-08-25T05:19:41;15.70;;;3.83;;
42066;SDS011;27734;47.028;28.820;2022-08-25T05:22:12;12.13;;;4.30;;
42066;SDS011;27734;47.028;28.820;2022-08-25T05:24:44;13.83;;;4.27;;
42066;SDS011;27734;47.028;28.820;2022-08-25T05:27:15;15.57;;;3.97;;
42066;SDS011;27734;47.028;28.820;2022-08-25T05:29:46;15.67;;;4.57;;
42066;SDS011;27734;47.028;28.820;2022-08-25T05:32:17;9.97;;;4.00;;
42066;SDS011;27734;47.028;28.820;2022-08-25T05:34:53;15.80;;;4.20;;
42066;SDS011;27734;47.028;28.820;2022-08-25T05:37:25;16.87;;;3.93;;
42066;SDS011;27734;47.028;28.820;2022-08-25T05:39:56;14.13;;;3.83;;
42066;SDS011;27734;47.028;28.820;2022-08-25T05:42:28;11.55;;;3.80;;
42066;SDS011;27734;47.028;28.820;2022-08-25T05:44:59;12.60;;;4.27;;
42066;SDS011;27734;47.028;28.820;2022-08-25T05:47:33;12.13;;;3.60;;
42066;SDS011;27734;47.028;28.820;2022-08-25T05:50:05;13.40;;;4.00;;
42066;SDS011;27734;47.028;28.820;2022-08-25T05:52:38;12.07;;;3.70;;
42066;SDS011;27734;47.028;28.820;2022-08-25T05:55:10;8.97;;;3.90;;
42066;SDS011;27734;47.028;28.820;2022-08-25T05:57:42;9.90;;;3.92;;
42066;SDS011;27734;47.028;28.820;2022-08-25T06:00:14;19.97;;;4.13;;
42066;SDS011;27734;47.028;28.820;2022-08-25T06:02:46;12.57;;;3.67;;
42066;SDS011;27734;47.028;28.820;2022-08-25T06:05:19;10.40;;;3.50;;
42066;SDS011;27734;47.028;28.820;2022-08-25T06:07:51;7.92;;;3.40;;
42066;SDS011;27734;47.028;28.820;2022-08-25T06:10:26;11.07;;;3.87;;
42066;SDS011;27734;47.028;28.820;2022-08-25T06:12:58;11.83;;;3.53;;
42066;SDS011;27734;47.028;28.820;2022-08-25T06:15:29;11.40;;;4.00;;
42066;SDS011;27734;47.028;28.820;2022-08-25T06:18:01;15.27;;;4.13;;
42066;SDS011;27734;47.028;28.820;2022-08-25T06:20:35;16.00;;;3.80;;
42066;SDS011;27734;47.028;28.820;2022-08-25T06:23:06;11.93;;;3.43;;
42066;SDS011;27734;47.028;28.820;2022-08-25T06:25:38;9.67;;;3.67;;
42066;SDS011;27734;47.028;28.820;2022-08-25T06:28:11;16.07;;;3.67;;
42066;SDS011;27734;47.028;28.820;2022-08-25T06:30:44;12.10;;;3.63;;
42066;SDS011;27734;47.028;28.820;2022-08-25T06:33:17;11.40;;;3.40;;
42066;SDS011;27734;47.028;28.820;2022-08-25T06:35:52;8.48;;;3.50;;
42066;SDS011;27734;47.028;28.820;2022-08-25T06:38:26;12.97;;;3.70;;
42066;SDS011;27734;47.028;28.820;2022-08-25T06:41:05;10.80;;;3.73;;
42066;SDS011;27734;47.028;28.820;2022-08-25T06:43:41;13.10;;;3.83;;
42066;SDS011;27734;47.028;28.820;2022-08-25T06:46:14;11.80;;;3.60;;
42066;SDS011;27734;47.028;28.820;2022-08-25T06:48:47;12.90;;;3.63;;
42066;SDS011;27734;47.028;28.820;2022-08-25T06:51:21;11.00;;;3.93;;
42066;SDS011;27734;47.028;28.820;2022-08-25T06:53:55;15.33;;;4.07;;
42066;SDS011;27734;47.028;28.820;2022-08-25T06:56:28;15.43;;;3.93;;
42066;SDS011;27734;47.028;28.820;2022-08-25T06:59:02;11.97;;;3.37;;
42066;SDS011;27734;47.028;28.820;2022-08-25T07:01:35;15.43;;;4.00;;
42066;SDS011;27734;47.028;28.820;2022-08-25T07:04:08;12.10;;;3.60;;
42066;SDS011;27734;47.028;28.820;2022-08-25T07:06:40;9.73;;;3.70;;
42066;SDS011;27734;47.028;28.820;2022-08-25T07:09:16;11.60;;;3.50;;
42066;SDS011;27734;47.028;28.820;2022-08-25T07:11:50;7.87;;;3.47;;
42066;SDS011;27734;47.028;28.820;2022-08-25T07:14:23;14.60;;;3.93;;
42066;SDS011;27734;47.028;28.820;2022-08-25T07:16:59;14.80;;;3.67;;
42066;SDS011;27734;47.028;28.820;2022-08-25T07:19:31;12.20;;;3.83;;
42066;SDS011;27734;47.028;28.820;2022-08-25T07:22:06;17.47;;;4.30;;
42066;SDS011;27734;47.028;28.820;2022-08-25T07:24:39;11.77;;;3.63;;
42066;SDS011;27734;47.028;28.820;2022-08-25T07:27:12;13.17;;;3.87;;
42066;SDS011;27734;47.028;28.820;2022-08-25T07:29:43;14.37;;;3.67;;
42066;SDS011;27734;47.028;28.820;2022-08-25T07:32:17;14.63;;;4.00;;
42066;SDS011;27734;47.028;28.820;2022-08-25T07:34:49;9.30;;;3.73;;
42066;SDS011;27734;47.028;28.820;2022-08-25T07:37:41;15.50;;;3.60;;
42066;SDS011;27734;47.028;28.820;2022-08-25T07:40:16;13.87;;;3.70;;
42066;SDS011;27734;47.028;28.820;2022-08-25T07:42:52;15.07;;;3.77;;
42066;SDS011;27734;47.028;28.820;2022-08-25T07:45:26;11.77;;;4.03;;
42066;SDS011;27734;47.028;28.820;2022-08-25T07:48:02;13.63;;;3.93;;
42066;SDS011;27734;47.028;28.820;2022-08-25T07:50:51;17.67;;;3.83;;
42066;SDS011;27734;47.028;28.820;2022-08-25T07:53:25;16.37;;;4.63;;
42066;SDS011;27734;47.028;28.820;2022-08-25T07:56:13;16.45;;;3.80;;
42066;SDS011;27734;47.028;28.820;2022-08-25T07:58:46;11.83;;;3.90;;
42066;SDS011;27734;47.028;28.820;2022-08-25T08:01:27;14.60;;;4.23;;
42066;SDS011;27734;47.028;28.820;2022-08-25T08:03:59;15.90;;;4.00;;
42066;SDS011;27734;47.028;28.820;2022-08-25T08:06:30;14.67;;;4.10;;
42066;SDS011;27734;47.028;28.820;2022-08-25T08:09:03;12.43;;;3.70;;
42066;SDS011;27734;47.028;28.820;2022-08-25T08:11:35;16.70;;;3.70;;
42066;SDS011;27734;47.028;28.820;2022-08-25T08:14:11;12.80;;;3.83;;
42066;SDS011;27734;47.028;28.820;2022-08-25T08:19:16;13.77;;;4.03;;
42066;SDS011;27734;47.028;28.820;2022-08-25T08:21:50;20.53;;;3.93;;
42066;SDS011;27734;47.028;28.820;2022-08-25T08:24:24;14.03;;;4.07;;
42066;SDS011;27734;47.028;28.820;2022-08-25T08:27:05;16.37;;;4.20;;
42066;SDS011;27734;47.028;28.820;2022-08-25T08:29:40;15.60;;;3.90;;
42066;SDS011;27734;47.028;28.820;2022-08-25T08:32:14;14.77;;;3.60;;
42066;SDS011;27734;47.028;28.820;2022-08-25T08:34:48;12.13;;;3.53;;
42066;SDS011;27734;47.028;28.820;2022-08-25T08:37:21;18.13;;;3.93;;
42066;SDS011;27734;47.028;28.820;2022-08-25T08:39:55;18.42;;;3.80;;
42066;SDS011;27734;47.028;28.820;2022-08-25T08:42:37;15.50;;;3.73;;
42066;SDS011;27734;47.028;28.820;2022-08-25T08:45:29;13.30;;;3.70;;
42066;SDS011;27734;47.028;28.820;2022-08-25T08:48:32;20.35;;;3.95;;
42066;SDS011;27734;47.028;28.820;2022-08-25T08:51:26;18.33;;;4.30;;
42066;SDS011;27734;47.028;28.820;2022-08-25T08:54:03;18.27;;;4.03;;
42066;SDS011;27734;47.028;28.820;2022-08-25T08:56:42;18.13;;;4.50;;
42066;SDS011;27734;47.028;28.820;2022-08-25T08:59:21;23.37;;;4.37;;
42066;SDS011;27734;47.028;28.820;2022-08-25T09:01:56;26.63;;;4.30;;
42066;SDS011;27734;47.028;28.820;2022-08-25T09:04:36;25.47;;;4.90;;
42066;SDS011;27734;47.028;28.820;2022-08-25T09:07:13;15.40;;;4.30;;
42066;SDS011;27734;47.028;28.820;2022-08-25T09:09:59;19.23;;;3.90;;
42066;SDS011;27734;47.028;28.820;2022-08-25T09:12:38;28.57;;;5.10;;
42066;SDS011;27734;47.028;28.820;2022-08-25T09:15:26;16.43;;;4.17;;
42066;SDS011;27734;47.028;28.820;2022-08-25T09:18:28;22.63;;;4.73;;
42066;SDS011;27734;47.028;28.820;2022-08-25T09:21:11;24.12;;;5.28;;
42066;SDS011;27734;47.028;28.820;2022-08-25T09:24:00;20.27;;;4.63;;
42066;SDS011;27734;47.028;28.820;2022-08-25T09:26:48;24.80;;;4.53;;
42066;SDS011;27734;47.028;28.820;2022-08-25T09:29:41;23.60;;;5.23;;
42066;SDS011;27734;47.028;28.820;2022-08-25T09:32:28;19.87;;;4.60;;
42066;SDS011;27734;47.028;28.820;2022-08-25T09:35:08;24.33;;;5.13;;
42066;SDS011;27734;47.028;28.820;2022-08-25T09:37:56;24.30;;;4.73;;
42066;SDS011;27734;47.028;28.820;2022-08-25T09:40:38;29.10;;;5.00;;
42066;SDS011;27734;47.028;28.820;2022-08-25T09:43:22;28.17;;;5.53;;
42066;SDS011;27734;47.028;28.820;2022-08-25T09:46:02;22.97;;;5.37;;
42066;SDS011;27734;47.028;28.820;2022-08-25T09:48:46;29.63;;;5.30;;
42066;SDS011;27734;47.028;28.820;2022-08-25T09:51:23;23.67;;;5.13;;
42066;SDS011;27734;47.028;28.820;2022-08-25T09:54:02;30.20;;;6.13;;
42066;SDS011;27734;47.028;28.820;2022-08-25T09:56:48;22.00;;;4.97;;
42066;SDS011;27734;47.028;28.820;2022-08-25T09:59:24;26.43;;;5.50;;
42066;SDS011;27734;47.028;28.820;2022-08-25T10:02:04;25.60;;;5.77;;
42066;SDS011;27734;47.028;28.820;2022-08-25T10:04:55;25.13;;;5.70;;
42066;SDS011;27734;47.028;28.820;2022-08-25T10:07:32;34.13;;;5.67;;
42066;SDS011;27734;47.028;28.820;2022-08-25T10:10:15;20.77;;;5.17;;
42066;SDS011;27734;47.028;28.820;2022-08-25T10:12:53;28.03;;;5.47;;
42066;SDS011;27734;47.028;28.820;2022-08-25T10:15:35;26.27;;;5.37;;
42066;SDS011;27734;47.028;28.820;2022-08-25T10:21:06;28.70;;;5.57;;
42066;SDS011;27734;47.028;28.820;2022-08-25T10:23:41;22.90;;;5.17;;
42066;SDS011;27734;47.028;28.820;2022-08-25T10:26:19;27.47;;;5.37;;
42066;SDS011;27734;47.028;28.820;2022-08-25T10:29:11;31.67;;;6.20;;
42066;SDS011;27734;47.028;28.820;2022-08-25T10:31:56;21.60;;;5.07;;
42066;SDS011;27734;47.028;28.820;2022-08-25T10:34:40;26.23;;;4.58;;
42066;SDS011;27734;47.028;28.820;2022-08-25T10:37:26;24.07;;;5.47;;
42066;SDS011;27734;47.028;28.820;2022-08-25T10:40:12;25.03;;;5.23;;
42066;SDS011;27734;47.028;28.820;2022-08-25T10:42:55;32.83;;;5.10;;
42066;SDS011;27734;47.028;28.820;2022-08-25T10:45:36;24.80;;;5.60;;
42066;SDS011;27734;47.028;28.820;2022-08-25T10:51:35;23.93;;;4.63;;
42066;SDS011;27734;47.028;28.820;2022-08-25T10:54:28;20.83;;;4.07;;
42066;SDS011;27734;47.028;28.820;2022-08-25T10:57:08;21.73;;;3.57;;
42066;SDS011;27734;47.028;28.820;2022-08-25T11:02:47;21.35;;;3.90;;
42066;SDS011;27734;47.028;28.820;2022-08-25T11:05:40;22.23;;;4.90;;
42066;SDS011;27734;47.028;28.820;2022-08-25T11:08:16;19.57;;;4.20;;
42066;SDS011;27734;47.028;28.820;2022-08-25T11:11:01;15.57;;;3.77;;
42066;SDS011;27734;47.028;28.820;2022-08-25T11:13:42;17.83;;;3.80;;
42066;SDS011;27734;47.028;28.820;2022-08-25T11:16:34;17.20;;;4.10;;
42066;SDS011;27734;47.028;28.820;2022-08-25T11:19:10;12.00;;;3.50;;
42066;SDS011;27734;47.028;28.820;2022-08-25T11:21:48;16.83;;;3.63;;
42066;SDS011;27734;47.028;28.820;2022-08-25T11:24:35;15.80;;;3.77;;
42066;SDS011;27734;47.028;28.820;2022-08-25T11:27:16;16.65;;;4.00;;
42066;SDS011;27734;47.028;28.820;2022-08-25T11:29:58;19.20;;;3.97;;
42066;SDS011;27734;47.028;28.820;2022-08-25T11:32:36;17.97;;;4.07;;
42066;SDS011;27734;47.028;28.820;2022-08-25T11:35:12;16.57;;;4.10;;
42066;SDS011;27734;47.028;28.820;2022-08-25T11:37:51;24.90;;;3.90;;
42066;SDS011;27734;47.028;28.820;2022-08-25T11:40:50;18.83;;;3.77;;
42066;SDS011;27734;47.028;28.820;2022-08-25T11:43:34;10.37;;;2.80;;
42066;SDS011;27734;47.028;28.820;2022-08-25T11:46:25;18.40;;;4.05;;
42066;SDS011;27734;47.028;28.820;2022-08-25T11:49:14;10.97;;;3.33;;
42066;SDS011;27734;47.028;28.820;2022-08-25T11:51:57;15.73;;;3.90;;
42066;SDS011;27734;47.028;28.820;2022-08-25T11:54:44;11.57;;;3.27;;
42066;SDS011;27734;47.028;28.820;2022-08-25T11:57:20;12.83;;;3.60;;
42066;SDS011;27734;47.028;28.820;2022-08-25T12:06:26;15.07;;;4.17;;
42066;SDS011;27734;47.028;28.820;2022-08-25T12:09:22;11.23;;;3.20;;
42066;SDS011;27734;47.028;28.820;2022-08-25T12:18:09;18.50;;;3.87;;
42066;SDS011;27734;47.028;28.820;2022-08-25T12:27:04;13.50;;;3.43;;
42066;SDS011;27734;47.028;28.820;2022-08-25T12:29:39;17.90;;;3.93;;
42066;SDS011;27734;47.028;28.820;2022-08-25T12:32:20;19.40;;;4.07;;
42066;SDS011;27734;47.028;28.820;2022-08-25T12:35:21;13.50;;;3.30;;
42066;SDS011;27734;47.028;28.820;2022-08-25T12:38:06;17.07;;;3.90;;
42066;SDS011;27734;47.028;28.820;2022-08-25T12:41:00;21.50;;;4.60;;
42066;SDS011;27734;47.028;28.820;2022-08-25T12:43:39;15.40;;;3.83;;
42066;SDS011;27734;47.028;28.820;2022-08-25T12:49:27;12.00;;;3.47;;
42066;SDS011;27734;47.028;28.820;2022-08-25T12:52:05;11.80;;;3.47;;
42066;SDS011;27734;47.028;28.820;2022-08-25T12:54:46;15.65;;;3.70;;
42066;SDS011;27734;47.028;28.820;2022-08-25T12:57:26;17.37;;;3.60;;
42066;SDS011;27734;47.028;28.820;2022-08-25T13:00:14;14.57;;;3.63;;
42066;SDS011;27734;47.028;28.820;2022-08-25T13:03:10;14.90;;;3.30;;
42066;SDS011;27734;47.028;28.820;2022-08-25T13:06:00;7.43;;;2.70;;
42066;SDS011;27734;47.028;28.820;2022-08-25T13:12:11;14.83;;;3.17;;
42066;SDS011;27734;47.028;28.820;2022-08-25T13:14:52;8.67;;;2.57;;
42066;SDS011;27734;47.028;28.820;2022-08-25T13:17:29;9.53;;;3.00;;
42066;SDS011;27734;47.028;28.820;2022-08-25T13:20:13;12.40;;;3.03;;
42066;SDS011;27734;47.028;28.820;2022-08-25T13:22:48;7.60;;;2.80;;
42066;SDS011;27734;47.028;28.820;2022-08-25T13:25:22;10.70;;;3.40;;
42066;SDS011;27734;47.028;28.820;2022-08-25T13:27:57;12.00;;;2.90;;
42066;SDS011;27734;47.028;28.820;2022-08-25T13:30:33;8.53;;;2.90;;
42066;SDS011;27734;47.028;28.820;2022-08-25T13:33:19;13.73;;;3.20;;
42066;SDS011;27734;47.028;28.820;2022-08-25T13:35:53;7.30;;;3.00;;
42066;SDS011;27734;47.028;28.820;2022-08-25T13:38:45;10.50;;;3.30;;
42066;SDS011;27734;47.028;28.820;2022-08-25T13:41:30;6.53;;;2.83;;
42066;SDS011;27734;47.028;28.820;2022-08-25T13:44:02;11.10;;;3.03;;
42066;SDS011;27734;47.028;28.820;2022-08-25T13:46:33;7.43;;;2.93;;
42066;SDS011;27734;47.028;28.820;2022-08-25T13:49:08;8.63;;;3.00;;
42066;SDS011;27734;47.028;28.820;2022-08-25T13:51:50;8.63;;;3.42;;
42066;SDS011;27734;47.028;28.820;2022-08-25T13:54:31;13.38;;;3.37;;
42066;SDS011;27734;47.028;28.820;2022-08-25T13:57:11;17.50;;;3.20;;
42066;SDS011;27734;47.028;28.820;2022-08-25T13:59:53;10.70;;;3.00;;
42066;SDS011;27734;47.028;28.820;2022-08-25T14:02:40;13.03;;;3.47;;
42066;SDS011;27734;47.028;28.820;2022-08-25T14:05:14;9.47;;;3.17;;
42066;SDS011;27734;47.028;28.820;2022-08-25T14:08:02;7.73;;;2.70;;
42066;SDS011;27734;47.028;28.820;2022-08-25T14:10:40;12.33;;;3.40;;
42066;SDS011;27734;47.028;28.820;2022-08-25T14:13:14;21.87;;;3.17;;
42066;SDS011;27734;47.028;28.820;2022-08-25T14:16:07;15.00;;;3.23;;
42066;SDS011;27734;47.028;28.820;2022-08-25T14:18:48;9.05;;;3.30;;
42066;SDS011;27734;47.028;28.820;2022-08-25T14:21:23;13.70;;;3.10;;
42066;SDS011;27734;47.028;28.820;2022-08-25T14:23:58;6.23;;;2.60;;
42066;SDS011;27734;47.028;28.820;2022-08-25T14:31:50;9.57;;;2.77;;
42066;SDS011;27734;47.028;28.820;2022-08-25T14:34:22;7.43;;;3.03;;
42066;SDS011;27734;47.028;28.820;2022-08-25T14:36:57;12.07;;;3.30;;
42066;SDS011;27734;47.028;28.820;2022-08-25T14:42:34;12.90;;;3.17;;
42066;SDS011;27734;47.028;28.820;2022-08-25T14:51:18;10.77;;;3.33;;
42066;SDS011;27734;47.028;28.820;2022-08-25T14:53:51;12.53;;;3.50;;
42066;SDS011;27734;47.028;28.820;2022-08-25T14:56:28;15.70;;;3.87;;
42066;SDS011;27734;47.028;28.820;2022-08-25T14:59:03;7.93;;;2.87;;
42066;SDS011;27734;47.028;28.820;2022-08-25T15:01:34;7.37;;;2.90;;
42066;SDS011;27734;47.028;28.820;2022-08-25T15:04:07;6.27;;;3.13;;
42066;SDS011;27734;47.028;28.820;2022-08-25T15:06:41;10.60;;;3.10;;
42066;SDS011;27734;47.028;28.820;2022-08-25T15:09:14;14.60;;;3.65;;
42066;SDS011;27734;47.028;28.820;2022-08-25T15:11:46;10.83;;;3.47;;
42066;SDS011;27734;47.028;28.820;2022-08-25T15:14:20;11.53;;;3.23;;
42066;SDS011;27734;47.028;28.820;2022-08-25T15:16:54;10.43;;;3.15;;
42066;SDS011;27734;47.028;28.820;2022-08-25T15:19:25;10.63;;;3.20;;
42066;SDS011;27734;47.028;28.820;2022-08-25T15:21:57;7.70;;;3.10;;
42066;SDS011;27734;47.028;28.820;2022-08-25T15:24:28;7.27;;;3.20;;
42066;SDS011;27734;47.028;28.820;2022-08-25T15:27:00;5.73;;;3.60;;
42066;SDS011;27734;47.028;28.820;2022-08-25T15:29:34;9.50;;;3.20;;
42066;SDS011;27734;47.028;28.820;2022-08-25T15:32:06;9.87;;;3.10;;
42066;SDS011;27734;47.028;28.820;2022-08-25T15:34:40;8.58;;;3.22;;
42066;SDS011;27734;47.028;28.820;2022-08-25T15:37:12;6.80;;;2.93;;
42066;SDS011;27734;47.028;28.820;2022-08-25T15:39:44;9.23;;;3.30;;
42066;SDS011;27734;47.028;28.820;2022-08-25T15:42:16;9.10;;;3.00;;
42066;SDS011;27734;47.028;28.820;2022-08-25T15:44:47;8.77;;;3.20;;
42066;SDS011;27734;47.028;28.820;2022-08-25T15:47:19;6.30;;;3.00;;
42066;SDS011;27734;47.028;28.820;2022-08-25T15:49:56;9.90;;;3.20;;
42066;SDS011;27734;47.028;28.820;2022-08-25T15:52:32;5.40;;;2.80;;
42066;SDS011;27734;47.028;28.820;2022-08-25T15:55:05;10.60;;;3.43;;
42066;SDS011;27734;47.028;28.820;2022-08-25T15:57:37;5.03;;;3.22;;
42066;SDS011;27734;47.028;28.820;2022-08-25T16:00:10;4.95;;;2.65;;
42066;SDS011;27734;47.028;28.820;2022-08-25T16:02:43;8.73;;;2.80;;
42066;SDS011;27734;47.028;28.820;2022-08-25T16:05:14;8.53;;;3.30;;
42066;SDS011;27734;47.028;28.820;2022-08-25T16:07:45;9.03;;;3.50;;